sensor_id;sensor_type;location;lat;lon;timestamp;pressure;altitude;pressure_sealevel;temperature;humidity
25238;BME280;13185;50.872;5.306;2023-05-25T00:01:40;102130.75;;;11.79;74.71
25238;BME280;13185;50.872;5.306;2023-05-25T00:04:08;102127.28;;;11.76;74.98
25238;BME280;13185;50.872;5.306;2023-05-25T00:06:34;102135.53;;;11.73;75.32
25238;BME280;13185;50.872;5.306;2023-05-25T00:09:02;102132.03;;;11.71;75.34
25238;BME280;13185;50.872;5.306;2023-05-25T00:11:27;102133.00;;;11.70;75.39
25238;BME280;13185;50.872;5.306;2023-05-25T00:13:53;102133.19;;;11.65;75.64
25238;BME280;13185;50.872;5.306;2023-05-25T00:16:19;102132.50;;;11.62;75.67
25238;BME280;13185;50.872;5.306;2023-05-25T00:18:44;102136.19;;;11.59;75.74
25238;BME280;13185;50.872;5.306;2023-05-25T00:21:12;102133.66;;;11.56;75.92
25238;BME280;13185;50.872;5.306;2023-05-25T00:23:38;102139.97;;;11.55;75.92
25238;BME280;13185;50.872;5.306;2023-05-25T00:26:03;102135.69;;;11.51;76.29
25238;BME280;13185;50.872;5.306;2023-05-25T00:28:29;102132.22;;;11.49;76.26
25238;BME280;13185;50.872;5.306;2023-05-25T00:30:55;102134.13;;;11.47;76.64
25238;BME280;13185;50.872;5.306;2023-05-25T00:33:21;102135.13;;;11.44;76.69
25238;BME280;13185;50.872;5.306;2023-05-25T00:35:46;102137.88;;;11.43;76.95
25238;BME280;13185;50.872;5.306;2023-05-25T00:38:16;102129.97;;;11.40;76.76
25238;BME280;13185;50.872;5.306;2023-05-25T00:40:44;102138.19;;;11.37;76.98
25238;BME280;13185;50.872;5.306;2023-05-25T00:43:11;102138.31;;;11.34;77.14
25238;BME280;13185;50.872;5.306;2023-05-25T00:45:37;102140.13;;;11.33;77.21
25238;BME280;13185;50.872;5.306;2023-05-25T00:48:04;102141.16;;;11.31;77.37
25238;BME280;13185;50.872;5.306;2023-05-25T00:50:41;102140.38;;;11.28;77.46
25238;BME280;13185;50.872;5.306;2023-05-25T00:53:08;102141.38;;;11.26;77.44
25238;BME280;13185;50.872;5.306;2023-05-25T00:55:37;102144.28;;;11.21;77.87
25238;BME280;13185;50.872;5.306;2023-05-25T00:58:06;102133.84;;;11.15;78.08
25238;BME280;13185;50.872;5.306;2023-05-25T01:00:32;102141.94;;;11.14;78.15
25238;BME280;13185;50.872;5.306;2023-05-25T01:03:03;102145.66;;;11.11;78.13
25238;BME280;13185;50.872;5.306;2023-05-25T01:05:33;102144.78;;;11.11;78.34
25238;BME280;13185;50.872;5.306;2023-05-25T01:07:59;102140.44;;;11.08;78.13
25238;BME280;13185;50.872;5.306;2023-05-25T01:10:30;102139.72;;;11.05;78.48
25238;BME280;13185;50.872;5.306;2023-05-25T01:12:58;102138.97;;;11.01;78.69
25238;BME280;13185;50.872;5.306;2023-05-25T01:15:28;102142.75;;;10.97;78.91
25238;BME280;13185;50.872;5.306;2023-05-25T01:17:54;102142.13;;;10.90;79.00
25238;BME280;13185;50.872;5.306;2023-05-25T01:20:24;102144.81;;;10.90;79.27
25238;BME280;13185;50.872;5.306;2023-05-25T01:23:09;102141.34;;;10.88;79.31
25238;BME280;13185;50.872;5.306;2023-05-25T01:25:40;102135.19;;;10.86;79.40
25238;BME280;13185;50.872;5.306;2023-05-25T01:28:24;102124.56;;;10.83;79.42
25238;BME280;13185;50.872;5.306;2023-05-25T01:30:51;102128.34;;;10.79;79.71
25238;BME280;13185;50.872;5.306;2023-05-25T01:33:18;102133.84;;;10.76;79.81
25238;BME280;13185;50.872;5.306;2023-05-25T01:35:44;102132.31;;;10.70;79.98
25238;BME280;13185;50.872;5.306;2023-05-25T01:38:11;102138.69;;;10.68;80.06
25238;BME280;13185;50.872;5.306;2023-05-25T01:40:38;102132.72;;;10.61;80.85
25238;BME280;13185;50.872;5.306;2023-05-25T01:43:04;102134.69;;;10.58;80.73
25238;BME280;13185;50.872;5.306;2023-05-25T01:45:32;102132.94;;;10.57;80.86
25238;BME280;13185;50.872;5.306;2023-05-25T01:48:15;102135.69;;;10.55;81.14
25238;BME280;13185;50.872;5.306;2023-05-25T01:50:53;102140.19;;;10.55;81.22
25238;BME280;13185;50.872;5.306;2023-05-25T01:53:27;102139.31;;;10.54;81.16
25238;BME280;13185;50.872;5.306;2023-05-25T01:55:59;102139.38;;;10.53;81.43
25238;BME280;13185;50.872;5.306;2023-05-25T01:58:33;102142.19;;;10.50;81.35
25238;BME280;13185;50.872;5.306;2023-05-25T02:01:01;102150.31;;;10.48;81.45
25238;BME280;13185;50.872;5.306;2023-05-25T02:03:27;102144.28;;;10.43;81.55
25238;BME280;13185;50.872;5.306;2023-05-25T02:05:52;102146.28;;;10.38;81.69
25238;BME280;13185;50.872;5.306;2023-05-25T02:08:18;102150.03;;;10.34;81.86
25238;BME280;13185;50.872;5.306;2023-05-25T02:10:45;102147.53;;;10.29;82.00
25238;BME280;13185;50.872;5.306;2023-05-25T02:13:11;102153.03;;;10.26;82.24
25238;BME280;13185;50.872;5.306;2023-05-25T02:15:36;102145.22;;;10.22;82.35
25238;BME280;13185;50.872;5.306;2023-05-25T02:18:02;102155.06;;;10.20;82.46
25238;BME280;13185;50.872;5.306;2023-05-25T02:20:30;102156.00;;;10.19;82.70
25238;BME280;13185;50.872;5.306;2023-05-25T02:22:56;102148.03;;;10.17;82.69
25238;BME280;13185;50.872;5.306;2023-05-25T02:25:21;102157.91;;;10.17;82.92
25238;BME280;13185;50.872;5.306;2023-05-25T02:27:47;102153.53;;;10.14;82.90
25238;BME280;13185;50.872;5.306;2023-05-25T02:30:13;102162.53;;;10.13;83.03
25238;BME280;13185;50.872;5.306;2023-05-25T02:32:38;102156.41;;;10.09;83.06
25238;BME280;13185;50.872;5.306;2023-05-25T02:35:05;102158.28;;;10.07;83.30
25238;BME280;13185;50.872;5.306;2023-05-25T02:37:32;102155.66;;;10.06;83.25
25238;BME280;13185;50.872;5.306;2023-05-25T02:39:58;102157.53;;;10.04;83.60
25238;BME280;13185;50.872;5.306;2023-05-25T02:42:23;102159.44;;;10.02;83.84
25238;BME280;13185;50.872;5.306;2023-05-25T02:44:49;102167.56;;;9.99;84.01
25238;BME280;13185;50.872;5.306;2023-05-25T02:47:15;102168.56;;;9.96;84.07
25238;BME280;13185;50.872;5.306;2023-05-25T02:49:41;102166.84;;;9.95;84.44
25238;BME280;13185;50.872;5.306;2023-05-25T02:52:07;102164.28;;;9.92;84.46
25238;BME280;13185;50.872;5.306;2023-05-25T02:54:33;102160.81;;;9.90;84.66
25238;BME280;13185;50.872;5.306;2023-05-25T02:56:59;102160.84;;;9.89;84.90
25238;BME280;13185;50.872;5.306;2023-05-25T02:59:28;102165.41;;;9.87;85.04
25238;BME280;13185;50.872;5.306;2023-05-25T03:01:53;102170.84;;;9.85;85.35
25238;BME280;13185;50.872;5.306;2023-05-25T03:04:19;102176.19;;;9.85;85.43
25238;BME280;13185;50.872;5.306;2023-05-25T03:06:44;102173.50;;;9.85;85.61
25238;BME280;13185;50.872;5.306;2023-05-25T03:09:14;102176.25;;;9.83;85.46
25238;BME280;13185;50.872;5.306;2023-05-25T03:11:40;102178.13;;;9.81;85.50
25238;BME280;13185;50.872;5.306;2023-05-25T03:14:08;102179.09;;;9.79;85.78
25238;BME280;13185;50.872;5.306;2023-05-25T03:16:34;102183.66;;;9.77;85.81
25238;BME280;13185;50.872;5.306;2023-05-25T03:19:02;102176.56;;;9.76;85.95
25238;BME280;13185;50.872;5.306;2023-05-25T03:21:30;102180.25;;;9.73;85.97
25238;BME280;13185;50.872;5.306;2023-05-25T03:23:56;102176.75;;;9.71;86.13
25238;BME280;13185;50.872;5.306;2023-05-25T03:26:22;102185.78;;;9.69;86.24
25238;BME280;13185;50.872;5.306;2023-05-25T03:28:50;102192.94;;;9.68;86.42
25238;BME280;13185;50.872;5.306;2023-05-25T03:31:17;102195.69;;;9.67;86.64
25238;BME280;13185;50.872;5.306;2023-05-25T03:33:43;102195.75;;;9.65;86.67
25238;BME280;13185;50.872;5.306;2023-05-25T03:36:09;102201.16;;;9.64;86.76
25238;BME280;13185;50.872;5.306;2023-05-25T03:38:37;102199.41;;;9.63;86.84
25238;BME280;13185;50.872;5.306;2023-05-25T03:41:03;102195.88;;;9.62;87.00
25238;BME280;13185;50.872;5.306;2023-05-25T03:43:29;102189.75;;;9.59;87.03
25238;BME280;13185;50.872;5.306;2023-05-25T03:45:55;102196.03;;;9.58;87.02
25238;BME280;13185;50.872;5.306;2023-05-25T03:48:20;102198.78;;;9.56;87.13
25238;BME280;13185;50.872;5.306;2023-05-25T03:50:46;102213.91;;;9.57;87.36
25238;BME280;13185;50.872;5.306;2023-05-25T03:53:11;102211.31;;;9.55;87.29
25238;BME280;13185;50.872;5.306;2023-05-25T03:55:37;102199.78;;;9.53;87.54
25238;BME280;13185;50.872;5.306;2023-05-25T03:58:04;102213.16;;;9.53;87.74
25238;BME280;13185;50.872;5.306;2023-05-25T04:00:29;102214.97;;;9.53;87.69
25238;BME280;13185;50.872;5.306;2023-05-25T04:02:55;102211.44;;;9.52;87.84
25238;BME280;13185;50.872;5.306;2023-05-25T04:05:21;102210.56;;;9.52;87.96
25238;BME280;13185;50.872;5.306;2023-05-25T04:07:46;102216.84;;;9.51;88.12
25238;BME280;13185;50.872;5.306;2023-05-25T04:10:12;102218.66;;;9.50;88.36
25238;BME280;13185;50.872;5.306;2023-05-25T04:12:38;102215.97;;;9.50;88.29
25238;BME280;13185;50.872;5.306;2023-05-25T04:15:04;102222.06;;;9.54;88.58
25238;BME280;13185;50.872;5.306;2023-05-25T04:17:36;102212.31;;;9.53;88.71
25238;BME280;13185;50.872;5.306;2023-05-25T04:20:01;102223.88;;;9.53;88.60
25238;BME280;13185;50.872;5.306;2023-05-25T04:22:28;102225.63;;;9.54;88.72
25238;BME280;13185;50.872;5.306;2023-05-25T04:24:54;102232.72;;;9.55;88.96
25238;BME280;13185;50.872;5.306;2023-05-25T04:27:20;102236.22;;;9.58;88.89
25238;BME280;13185;50.872;5.306;2023-05-25T04:29:46;102231.72;;;9.58;88.95
25238;BME280;13185;50.872;5.306;2023-05-25T04:32:22;102238.78;;;9.61;88.96
25238;BME280;13185;50.872;5.306;2023-05-25T04:35:14;102242.22;;;9.64;89.16
25238;BME280;13185;50.872;5.306;2023-05-25T04:37:43;102244.81;;;9.66;89.09
25238;BME280;13185;50.872;5.306;2023-05-25T04:40:08;102242.03;;;9.69;89.10
25238;BME280;13185;50.872;5.306;2023-05-25T04:42:40;102242.00;;;9.70;89.04
25238;BME280;13185;50.872;5.306;2023-05-25T04:45:06;102240.84;;;9.76;88.97
25238;BME280;13185;50.872;5.306;2023-05-25T04:47:34;102247.97;;;9.77;89.15
25238;BME280;13185;50.872;5.306;2023-05-25T04:50:02;102244.19;;;9.82;89.22
25238;BME280;13185;50.872;5.306;2023-05-25T04:52:28;102238.63;;;9.87;89.22
25238;BME280;13185;50.872;5.306;2023-05-25T04:54:54;102246.38;;;9.95;89.18
25238;BME280;13185;50.872;5.306;2023-05-25T04:57:19;102247.81;;;10.03;89.13
25238;BME280;13185;50.872;5.306;2023-05-25T04:59:46;102248.38;;;10.11;89.04
25238;BME280;13185;50.872;5.306;2023-05-25T05:02:11;102249.78;;;10.20;88.78
25238;BME280;13185;50.872;5.306;2023-05-25T05:04:37;102250.38;;;10.28;88.83
25238;BME280;13185;50.872;5.306;2023-05-25T05:07:05;102252.88;;;10.33;88.61
25238;BME280;13185;50.872;5.306;2023-05-25T05:09:32;102266.81;;;10.41;88.33
25238;BME280;13185;50.872;5.306;2023-05-25T05:11:59;102264.78;;;10.48;88.03
25238;BME280;13185;50.872;5.306;2023-05-25T05:14:26;102261.63;;;10.58;87.91
25238;BME280;13185;50.872;5.306;2023-05-25T05:16:52;102266.41;;;10.72;87.61
25238;BME280;13185;50.872;5.306;2023-05-25T05:19:17;102266.88;;;10.82;87.33
25238;BME280;13185;50.872;5.306;2023-05-25T05:21:43;102268.09;;;10.95;86.60
25238;BME280;13185;50.872;5.306;2023-05-25T05:24:08;102272.13;;;11.05;86.57
25238;BME280;13185;50.872;5.306;2023-05-25T05:26:34;102266.31;;;11.14;86.07
25238;BME280;13185;50.872;5.306;2023-05-25T05:28:59;102273.03;;;11.24;85.46
25238;BME280;13185;50.872;5.306;2023-05-25T05:31:26;102270.72;;;11.36;85.28
25238;BME280;13185;50.872;5.306;2023-05-25T05:33:53;102268.28;;;11.50;85.12
25238;BME280;13185;50.872;5.306;2023-05-25T05:36:19;102272.22;;;11.62;84.63
25238;BME280;13185;50.872;5.306;2023-05-25T05:38:44;102270.75;;;11.73;84.63
25238;BME280;13185;50.872;5.306;2023-05-25T05:41:12;102278.28;;;11.85;83.82
25238;BME280;13185;50.872;5.306;2023-05-25T05:43:41;102278.72;;;11.95;83.71
25238;BME280;13185;50.872;5.306;2023-05-25T05:46:08;102276.44;;;12.05;83.33
25238;BME280;13185;50.872;5.306;2023-05-25T05:48:38;102281.09;;;12.20;82.84
25238;BME280;13185;50.872;5.306;2023-05-25T05:51:04;102281.56;;;12.28;82.29
25238;BME280;13185;50.872;5.306;2023-05-25T05:53:31;102284.75;;;12.36;81.85
25238;BME280;13185;50.872;5.306;2023-05-25T05:55:57;102287.94;;;12.45;81.79
25238;BME280;13185;50.872;5.306;2023-05-25T05:58:24;102292.72;;;12.57;81.64
25238;BME280;13185;50.872;5.306;2023-05-25T06:00:54;102297.38;;;12.70;81.61
25238;BME280;13185;50.872;5.306;2023-05-25T06:03:21;102290.91;;;12.75;81.27
25238;BME280;13185;50.872;5.306;2023-05-25T06:05:47;102299.22;;;12.87;80.78
25238;BME280;13185;50.872;5.306;2023-05-25T06:08:13;102302.94;;;13.02;80.38
25238;BME280;13185;50.872;5.306;2023-05-25T06:10:38;102296.53;;;13.22;79.99
25238;BME280;13185;50.872;5.306;2023-05-25T06:13:04;102308.06;;;13.41;79.40
25238;BME280;13185;50.872;5.306;2023-05-25T06:15:34;102306.63;;;13.51;78.96
25238;BME280;13185;50.872;5.306;2023-05-25T06:18:01;102304.38;;;13.60;77.65
25238;BME280;13185;50.872;5.306;2023-05-25T06:20:29;102306.91;;;13.63;76.86
25238;BME280;13185;50.872;5.306;2023-05-25T06:22:55;102308.91;;;13.59;77.07
25238;BME280;13185;50.872;5.306;2023-05-25T06:25:20;102319.41;;;13.64;77.27
25238;BME280;13185;50.872;5.306;2023-05-25T06:27:46;102307.69;;;13.65;77.23
25238;BME280;13185;50.872;5.306;2023-05-25T06:30:12;102304.13;;;13.64;76.23
25238;BME280;13185;50.872;5.306;2023-05-25T06:32:38;102314.16;;;13.78;76.68
25238;BME280;13185;50.872;5.306;2023-05-25T06:35:04;102312.63;;;13.90;76.47
25238;BME280;13185;50.872;5.306;2023-05-25T06:37:30;102309.84;;;14.07;75.81
25238;BME280;13185;50.872;5.306;2023-05-25T06:40:03;102303.84;;;14.18;75.20
25238;BME280;13185;50.872;5.306;2023-05-25T06:42:29;102300.44;;;14.30;74.78
25238;BME280;13185;50.872;5.306;2023-05-25T06:44:55;102306.63;;;14.32;74.45
25238;BME280;13185;50.872;5.306;2023-05-25T06:47:22;102304.88;;;14.47;74.32
25238;BME280;13185;50.872;5.306;2023-05-25T06:49:48;102307.75;;;14.59;73.98
25238;BME280;13185;50.872;5.306;2023-05-25T06:52:13;102308.34;;;14.64;73.42
25238;BME280;13185;50.872;5.306;2023-05-25T06:54:39;102301.78;;;14.68;73.23
25238;BME280;13185;50.872;5.306;2023-05-25T06:57:05;102303.16;;;14.76;73.29
25238;BME280;13185;50.872;5.306;2023-05-25T06:59:31;102301.41;;;14.90;72.11
25238;BME280;13185;50.872;5.306;2023-05-25T07:01:56;102309.63;;;15.03;71.83
25238;BME280;13185;50.872;5.306;2023-05-25T07:07:46;102311.69;;;15.28;71.54
25238;BME280;13185;50.872;5.306;2023-05-25T07:13:18;102313.97;;;15.64;71.64
25238;BME280;13185;50.872;5.306;2023-05-25T07:15:44;102312.72;;;15.70;69.61
25238;BME280;13185;50.872;5.306;2023-05-25T07:18:09;102320.72;;;15.85;69.72
25238;BME280;13185;50.872;5.306;2023-05-25T07:20:37;102316.63;;;16.07;69.53
25238;BME280;13185;50.872;5.306;2023-05-25T07:23:03;102321.03;;;16.22;68.91
25238;BME280;13185;50.872;5.306;2023-05-25T07:25:28;102329.31;;;16.48;67.67
25238;BME280;13185;50.872;5.306;2023-05-25T07:27:54;102323.88;;;16.48;66.77
25238;BME280;13185;50.872;5.306;2023-05-25T07:30:20;102328.25;;;16.63;67.40
25238;BME280;13185;50.872;5.306;2023-05-25T07:32:45;102336.72;;;16.85;66.62
25238;BME280;13185;50.872;5.306;2023-05-25T07:35:11;102337.28;;;16.90;64.99
25238;BME280;13185;50.872;5.306;2023-05-25T07:37:36;102335.72;;;16.86;65.50
25238;BME280;13185;50.872;5.306;2023-05-25T07:40:02;102339.25;;;17.01;64.98
25238;BME280;13185;50.872;5.306;2023-05-25T07:42:28;102333.50;;;17.06;66.01
25238;BME280;13185;50.872;5.306;2023-05-25T07:44:59;102334.72;;;17.14;65.45
25238;BME280;13185;50.872;5.306;2023-05-25T07:47:25;102335.28;;;17.32;65.94
25238;BME280;13185;50.872;5.306;2023-05-25T07:49:51;102346.38;;;17.42;65.13
25238;BME280;13185;50.872;5.306;2023-05-25T07:52:16;102350.16;;;17.52;65.56
25238;BME280;13185;50.872;5.306;2023-05-25T07:54:44;102344.28;;;17.58;64.96
25238;BME280;13185;50.872;5.306;2023-05-25T07:57:09;102345.16;;;17.46;65.00
25238;BME280;13185;50.872;5.306;2023-05-25T07:59:35;102342.09;;;17.38;65.16
25238;BME280;13185;50.872;5.306;2023-05-25T08:02:00;102345.50;;;17.41;66.33
25238;BME280;13185;50.872;5.306;2023-05-25T08:04:26;102353.19;;;17.47;65.91
25238;BME280;13185;50.872;5.306;2023-05-25T08:06:52;102352.00;;;17.51;65.60
25238;BME280;13185;50.872;5.306;2023-05-25T08:09:17;102343.53;;;17.43;65.15
25238;BME280;13185;50.872;5.306;2023-05-25T08:11:42;102346.25;;;17.43;64.83
25238;BME280;13185;50.872;5.306;2023-05-25T08:14:10;102350.47;;;17.22;64.83
25238;BME280;13185;50.872;5.306;2023-05-25T08:16:35;102343.31;;;17.34;65.41
25238;BME280;13185;50.872;5.306;2023-05-25T08:19:01;102348.72;;;17.46;65.72
25238;BME280;13185;50.872;5.306;2023-05-25T08:21:26;102334.75;;;17.52;65.52
25238;BME280;13185;50.872;5.306;2023-05-25T08:23:52;102343.41;;;17.57;64.21
25238;BME280;13185;50.872;5.306;2023-05-25T08:26:18;102348.97;;;17.56;63.79
25238;BME280;13185;50.872;5.306;2023-05-25T08:28:44;102347.00;;;17.58;63.44
25238;BME280;13185;50.872;5.306;2023-05-25T08:31:09;102354.50;;;17.54;63.00
25238;BME280;13185;50.872;5.306;2023-05-25T08:33:36;102347.53;;;17.50;63.58
25238;BME280;13185;50.872;5.306;2023-05-25T08:36:02;102356.22;;;17.55;63.59
25238;BME280;13185;50.872;5.306;2023-05-25T08:38:27;102356.56;;;17.64;64.44
25238;BME280;13185;50.872;5.306;2023-05-25T08:41:05;102351.78;;;17.67;63.89
25238;BME280;13185;50.872;5.306;2023-05-25T08:43:32;102357.97;;;17.82;65.13
25238;BME280;13185;50.872;5.306;2023-05-25T08:46:02;102356.13;;;17.95;64.14
25238;BME280;13185;50.872;5.306;2023-05-25T08:48:30;102349.25;;;18.02;63.05
25238;BME280;13185;50.872;5.306;2023-05-25T08:51:04;102350.78;;;18.06;63.11
25238;BME280;13185;50.872;5.306;2023-05-25T08:53:34;102349.25;;;18.15;63.21
25238;BME280;13185;50.872;5.306;2023-05-25T08:56:06;102344.28;;;18.33;62.42
25238;BME280;13185;50.872;5.306;2023-05-25T08:58:42;102347.88;;;18.46;62.83
25238;BME280;13185;50.872;5.306;2023-05-25T09:01:13;102343.56;;;18.55;60.70
25238;BME280;13185;50.872;5.306;2023-05-25T09:03:40;102345.34;;;18.43;60.64
25238;BME280;13185;50.872;5.306;2023-05-25T09:06:06;102345.41;;;18.54;62.40
25238;BME280;13185;50.872;5.306;2023-05-25T09:08:32;102342.63;;;18.80;61.26
25238;BME280;13185;50.872;5.306;2023-05-25T09:10:58;102347.50;;;18.87;60.80
25238;BME280;13185;50.872;5.306;2023-05-25T09:13:26;102346.66;;;18.98;59.72
25238;BME280;13185;50.872;5.306;2023-05-25T09:15:52;102344.44;;;19.03;59.46
25238;BME280;13185;50.872;5.306;2023-05-25T09:18:18;102345.28;;;18.92;56.99
25238;BME280;13185;50.872;5.306;2023-05-25T09:20:43;102347.66;;;18.73;54.83
25238;BME280;13185;50.872;5.306;2023-05-25T09:23:09;102343.94;;;18.74;55.77
25238;BME280;13185;50.872;5.306;2023-05-25T09:25:34;102342.38;;;18.83;56.17
25238;BME280;13185;50.872;5.306;2023-05-25T09:28:02;102350.41;;;18.84;55.74
25238;BME280;13185;50.872;5.306;2023-05-25T09:30:27;102345.84;;;18.85;55.42
25238;BME280;13185;50.872;5.306;2023-05-25T09:33:13;102340.38;;;18.73;54.98
25238;BME280;13185;50.872;5.306;2023-05-25T09:35:39;102337.66;;;18.73;55.49
25238;BME280;13185;50.872;5.306;2023-05-25T09:38:05;102348.31;;;18.77;56.18
25238;BME280;13185;50.872;5.306;2023-05-25T09:40:32;102348.31;;;18.77;56.11
25238;BME280;13185;50.872;5.306;2023-05-25T09:42:58;102338.50;;;18.74;55.63
25238;BME280;13185;50.872;5.306;2023-05-25T09:45:25;102343.72;;;18.77;54.86
25238;BME280;13185;50.872;5.306;2023-05-25T09:47:57;102344.59;;;18.78;55.26
25238;BME280;13185;50.872;5.306;2023-05-25T09:50:26;102348.94;;;18.80;55.86
25238;BME280;13185;50.872;5.306;2023-05-25T09:52:57;102342.06;;;18.87;55.64
25238;BME280;13185;50.872;5.306;2023-05-25T09:55:23;102342.00;;;19.11;56.71
25238;BME280;13185;50.872;5.306;2023-05-25T09:57:55;102348.03;;;19.39;57.45
25238;BME280;13185;50.872;5.306;2023-05-25T10:00:22;102349.50;;;19.43;54.70
25238;BME280;13185;50.872;5.306;2023-05-25T10:02:48;102346.22;;;19.26;54.57
25238;BME280;13185;50.872;5.306;2023-05-25T10:05:14;102343.75;;;19.23;53.50
25238;BME280;13185;50.872;5.306;2023-05-25T10:07:41;102347.88;;;19.29;53.63
25238;BME280;13185;50.872;5.306;2023-05-25T10:10:09;102344.91;;;19.32;53.19
25238;BME280;13185;50.872;5.306;2023-05-25T10:12:38;102353.22;;;19.42;53.88
25238;BME280;13185;50.872;5.306;2023-05-25T10:15:06;102342.22;;;19.43;53.80
25238;BME280;13185;50.872;5.306;2023-05-25T10:17:34;102345.25;;;19.63;53.22
25238;BME280;13185;50.872;5.306;2023-05-25T10:20:02;102349.22;;;19.70;52.96
25238;BME280;13185;50.872;5.306;2023-05-25T10:27:39;102353.28;;;19.75;52.45
25238;BME280;13185;50.872;5.306;2023-05-25T10:30:07;102350.44;;;19.77;52.40
25238;BME280;13185;50.872;5.306;2023-05-25T10:32:33;102359.97;;;19.82;52.19
25238;BME280;13185;50.872;5.306;2023-05-25T10:35:02;102358.13;;;19.94;52.53
25238;BME280;13185;50.872;5.306;2023-05-25T10:37:28;102361.56;;;19.96;51.88
25238;BME280;13185;50.872;5.306;2023-05-25T10:39:56;102352.41;;;19.97;51.62
25238;BME280;13185;50.872;5.306;2023-05-25T10:42:22;102354.00;;;20.11;52.12
25238;BME280;13185;50.872;5.306;2023-05-25T10:44:48;102358.34;;;20.25;52.86
25238;BME280;13185;50.872;5.306;2023-05-25T10:47:15;102352.88;;;20.36;51.86
25238;BME280;13185;50.872;5.306;2023-05-25T10:49:52;102355.75;;;20.45;51.28
25238;BME280;13185;50.872;5.306;2023-05-25T10:52:18;102342.84;;;20.48;50.74
25238;BME280;13185;50.872;5.306;2023-05-25T10:54:46;102348.56;;;20.44;50.33
25238;BME280;13185;50.872;5.306;2023-05-25T10:57:18;102352.59;;;20.61;50.67
25238;BME280;13185;50.872;5.306;2023-05-25T10:59:51;102348.19;;;20.81;50.45
25238;BME280;13185;50.872;5.306;2023-05-25T11:02:19;102358.19;;;20.92;50.49
25238;BME280;13185;50.872;5.306;2023-05-25T11:04:48;102360.25;;;20.99;50.12
25238;BME280;13185;50.872;5.306;2023-05-25T11:07:15;102351.00;;;20.91;48.27
25238;BME280;13185;50.872;5.306;2023-05-25T11:09:43;102346.72;;;20.77;48.48
25238;BME280;13185;50.872;5.306;2023-05-25T11:12:20;102356.03;;;20.63;48.56
25238;BME280;13185;50.872;5.306;2023-05-25T11:15:08;102337.97;;;20.62;48.72
25238;BME280;13185;50.872;5.306;2023-05-25T11:17:57;102345.03;;;20.65;48.78
25238;BME280;13185;50.872;5.306;2023-05-25T11:20:26;102338.81;;;20.74;49.00
25238;BME280;13185;50.872;5.306;2023-05-25T11:22:52;102343.78;;;20.69;48.49
25238;BME280;13185;50.872;5.306;2023-05-25T11:25:38;102345.50;;;20.70;48.80
25238;BME280;13185;50.872;5.306;2023-05-25T11:28:05;102342.72;;;20.81;49.01
25238;BME280;13185;50.872;5.306;2023-05-25T11:30:31;102336.72;;;20.98;48.66
25238;BME280;13185;50.872;5.306;2023-05-25T11:33:00;102328.03;;;20.93;47.96
25238;BME280;13185;50.872;5.306;2023-05-25T11:35:26;102335.91;;;20.87;48.24
25238;BME280;13185;50.872;5.306;2023-05-25T11:37:53;102317.91;;;20.95;47.43
25238;BME280;13185;50.872;5.306;2023-05-25T11:40:22;102331.72;;;21.03;47.82
25238;BME280;13185;50.872;5.306;2023-05-25T11:42:48;102336.31;;;21.03;47.28
25238;BME280;13185;50.872;5.306;2023-05-25T11:45:15;102335.06;;;21.07;47.61
25238;BME280;13185;50.872;5.306;2023-05-25T11:47:41;102332.84;;;21.22;48.08
25238;BME280;13185;50.872;5.306;2023-05-25T11:50:14;102323.38;;;21.37;48.11
25238;BME280;13185;50.872;5.306;2023-05-25T11:52:40;102316.31;;;21.35;46.81
25238;BME280;13185;50.872;5.306;2023-05-25T11:55:13;102315.31;;;21.36;47.30
25238;BME280;13185;50.872;5.306;2023-05-25T11:57:39;102316.84;;;21.49;47.35
25238;BME280;13185;50.872;5.306;2023-05-25T12:00:05;102315.53;;;21.74;48.01
25238;BME280;13185;50.872;5.306;2023-05-25T12:02:39;102310.56;;;21.99;46.74
25238;BME280;13185;50.872;5.306;2023-05-25T12:05:06;102310.84;;;22.26;46.20
25238;BME280;13185;50.872;5.306;2023-05-25T12:07:32;102304.09;;;22.40;44.99
25238;BME280;13185;50.872;5.306;2023-05-25T12:10:12;102309.03;;;22.56;45.31
25238;BME280;13185;50.872;5.306;2023-05-25T12:12:48;102307.16;;;22.66;45.61
25238;BME280;13185;50.872;5.306;2023-05-25T12:15:16;102315.47;;;22.35;44.56
25238;BME280;13185;50.872;5.306;2023-05-25T12:17:43;102315.72;;;22.23;44.72
25238;BME280;13185;50.872;5.306;2023-05-25T12:20:10;102315.88;;;22.21;45.71
25238;BME280;13185;50.872;5.306;2023-05-25T12:22:40;102310.44;;;22.40;46.41
25238;BME280;13185;50.872;5.306;2023-05-25T12:25:09;102306.56;;;22.43;45.65
25238;BME280;13185;50.872;5.306;2023-05-25T12:27:35;102307.41;;;22.34;45.98
25238;BME280;13185;50.872;5.306;2023-05-25T12:30:02;102311.69;;;22.17;45.82
25238;BME280;13185;50.872;5.306;2023-05-25T12:32:28;102304.97;;;22.31;45.70
25238;BME280;13185;50.872;5.306;2023-05-25T12:35:03;102312.03;;;22.43;45.38
25238;BME280;13185;50.872;5.306;2023-05-25T12:37:28;102314.78;;;22.53;44.72
25238;BME280;13185;50.872;5.306;2023-05-25T12:39:54;102311.31;;;22.41;44.39
25238;BME280;13185;50.872;5.306;2023-05-25T12:42:19;102315.47;;;22.45;44.38
25238;BME280;13185;50.872;5.306;2023-05-25T12:44:45;102312.91;;;22.43;44.17
25238;BME280;13185;50.872;5.306;2023-05-25T12:49:46;102299.09;;;22.74;44.99
25238;BME280;13185;50.872;5.306;2023-05-25T12:52:33;102314.22;;;23.07;44.54
25238;BME280;13185;50.872;5.306;2023-05-25T12:58:03;102310.31;;;23.19;43.80
25238;BME280;13185;50.872;5.306;2023-05-25T13:00:30;102298.53;;;22.99;44.13
25238;BME280;13185;50.872;5.306;2023-05-25T13:02:56;102299.25;;;23.11;44.24
25238;BME280;13185;50.872;5.306;2023-05-25T13:05:29;102303.25;;;23.26;44.49
25238;BME280;13185;50.872;5.306;2023-05-25T13:07:56;102296.50;;;23.11;43.99
25238;BME280;13185;50.872;5.306;2023-05-25T13:10:22;102313.69;;;22.84;44.05
25238;BME280;13185;50.872;5.306;2023-05-25T13:12:49;102307.16;;;22.75;44.52